sensor_id;sensor_type;location;lat;lon;timestamp;pressure;altitude;pressure_sealevel;temperature;humidity
6778;BME280;3426;52.244;10.534;2022-07-09T00:00:14;101784.53;;;19.46;64.10
6778;BME280;3426;52.244;10.534;2022-07-09T00:02:41;101793.03;;;19.40;64.13
6778;BME280;3426;52.244;10.534;2022-07-09T00:05:07;101796.28;;;19.32;64.46
6778;BME280;3426;52.244;10.534;2022-07-09T00:07:42;101790.25;;;19.41;63.97
6778;BME280;3426;52.244;10.534;2022-07-09T00:10:09;101788.94;;;19.47;63.49
6778;BME280;3426;52.244;10.534;2022-07-09T00:12:37;101784.94;;;19.16;64.50
6778;BME280;3426;52.244;10.534;2022-07-09T00:15:04;101789.81;;;18.98;64.85
6778;BME280;3426;52.244;10.534;2022-07-09T00:17:30;101792.75;;;19.31;64.08
6778;BME280;3426;52.244;10.534;2022-07-09T00:19:57;101794.84;;;18.64;65.69
6778;BME280;3426;52.244;10.534;2022-07-09T00:22:24;101793.94;;;19.27;64.02
6778;BME280;3426;52.244;10.534;2022-07-09T00:24:50;101795.88;;;19.25;64.05
6778;BME280;3426;52.244;10.534;2022-07-09T00:27:17;101794.38;;;19.21;64.01
6778;BME280;3426;52.244;10.534;2022-07-09T00:29:43;101789.84;;;19.35;63.25
6778;BME280;3426;52.244;10.534;2022-07-09T00:32:10;101789.44;;;19.15;64.18
6778;BME280;3426;52.244;10.534;2022-07-09T00:34:36;101788.38;;;19.05;64.19
6778;BME280;3426;52.244;10.534;2022-07-09T00:37:03;101783.09;;;19.16;63.78
6778;BME280;3426;52.244;10.534;2022-07-09T00:39:30;101784.00;;;18.40;66.21
6778;BME280;3426;52.244;10.534;2022-07-09T00:44:31;101769.59;;;19.18;63.72
6778;BME280;3426;52.244;10.534;2022-07-09T00:46:57;101779.69;;;19.14;63.46
6778;BME280;3426;52.244;10.534;2022-07-09T00:49:25;101785.19;;;19.00;64.24
6778;BME280;3426;52.244;10.534;2022-07-09T00:51:54;101775.53;;;18.72;64.77
6778;BME280;3426;52.244;10.534;2022-07-09T00:54:20;101769.41;;;18.95;64.67
6778;BME280;3426;52.244;10.534;2022-07-09T00:56:48;101777.00;;;18.25;66.64
6778;BME280;3426;52.244;10.534;2022-07-09T00:59:15;101772.63;;;18.37;66.33
6778;BME280;3426;52.244;10.534;2022-07-09T01:01:42;101772.91;;;18.07;67.03
6778;BME280;3426;52.244;10.534;2022-07-09T01:04:09;101768.97;;;18.89;64.58
6778;BME280;3426;52.244;10.534;2022-07-09T01:06:35;101773.25;;;18.66;65.43
6778;BME280;3426;52.244;10.534;2022-07-09T01:09:03;101779.69;;;18.25;66.01
6778;BME280;3426;52.244;10.534;2022-07-09T01:11:30;101770.56;;;18.15;66.47
6778;BME280;3426;52.244;10.534;2022-07-09T01:13:57;101764.91;;;18.58;65.89
6778;BME280;3426;52.244;10.534;2022-07-09T01:16:34;101776.50;;;18.45;65.58
6778;BME280;3426;52.244;10.534;2022-07-09T01:19:01;101771.25;;;18.69;64.96
6778;BME280;3426;52.244;10.534;2022-07-09T01:21:28;101774.16;;;18.66;65.51
6778;BME280;3426;52.244;10.534;2022-07-09T01:23:54;101766.97;;;18.79;64.10
6778;BME280;3426;52.244;10.534;2022-07-09T01:26:21;101765.25;;;18.78;64.45
6778;BME280;3426;52.244;10.534;2022-07-09T01:28:48;101769.63;;;18.67;65.05
6778;BME280;3426;52.244;10.534;2022-07-09T01:31:14;101775.91;;;18.67;65.13
6778;BME280;3426;52.244;10.534;2022-07-09T01:33:41;101770.19;;;18.85;64.23
6778;BME280;3426;52.244;10.534;2022-07-09T01:36:08;101761.91;;;18.88;64.32
6778;BME280;3426;52.244;10.534;2022-07-09T01:38:35;101760.81;;;18.65;65.32
6778;BME280;3426;52.244;10.534;2022-07-09T01:41:02;101767.31;;;17.97;67.68
6778;BME280;3426;52.244;10.534;2022-07-09T01:43:29;101750.63;;;18.57;66.16
6778;BME280;3426;52.244;10.534;2022-07-09T01:45:57;101758.34;;;18.87;64.58
6778;BME280;3426;52.244;10.534;2022-07-09T01:48:29;101758.34;;;18.87;64.38
6778;BME280;3426;52.244;10.534;2022-07-09T01:50:56;101758.13;;;19.03;63.90
6778;BME280;3426;52.244;10.534;2022-07-09T01:53:25;101753.63;;;18.91;64.65
6778;BME280;3426;52.244;10.534;2022-07-09T01:55:51;101740.50;;;18.99;64.20
6778;BME280;3426;52.244;10.534;2022-07-09T01:58:19;101749.25;;;18.90;64.68
6778;BME280;3426;52.244;10.534;2022-07-09T02:00:45;101745.44;;;19.05;64.29
6778;BME280;3426;52.244;10.534;2022-07-09T02:03:12;101740.72;;;19.09;63.91
6778;BME280;3426;52.244;10.534;2022-07-09T02:05:39;101742.06;;;18.26;65.54
6778;BME280;3426;52.244;10.534;2022-07-09T02:08:05;101742.97;;;18.00;67.61
6778;BME280;3426;52.244;10.534;2022-07-09T02:10:32;101731.19;;;18.53;65.61
6778;BME280;3426;52.244;10.534;2022-07-09T02:12:58;101734.34;;;18.22;66.33
6778;BME280;3426;52.244;10.534;2022-07-09T02:15:25;101727.34;;;18.58;65.27
6778;BME280;3426;52.244;10.534;2022-07-09T02:17:51;101718.66;;;18.79;64.71
6778;BME280;3426;52.244;10.534;2022-07-09T02:20:18;101712.41;;;18.92;64.47
6778;BME280;3426;52.244;10.534;2022-07-09T02:22:45;101716.06;;;18.91;64.19
6778;BME280;3426;52.244;10.534;2022-07-09T02:25:11;101723.38;;;18.12;66.79
6778;BME280;3426;52.244;10.534;2022-07-09T02:27:38;101713.50;;;18.51;65.53
6778;BME280;3426;52.244;10.534;2022-07-09T02:30:05;101704.59;;;18.63;65.34
6778;BME280;3426;52.244;10.534;2022-07-09T02:32:31;101722.31;;;18.40;65.75
6778;BME280;3426;52.244;10.534;2022-07-09T02:34:58;101715.75;;;18.57;65.95
6778;BME280;3426;52.244;10.534;2022-07-09T02:37:24;101710.69;;;18.91;64.42
6778;BME280;3426;52.244;10.534;2022-07-09T02:39:51;101718.00;;;18.25;66.03
6778;BME280;3426;52.244;10.534;2022-07-09T02:42:17;101717.91;;;18.39;66.61
6778;BME280;3426;52.244;10.534;2022-07-09T02:44:44;101720.78;;;18.87;64.24
6778;BME280;3426;52.244;10.534;2022-07-09T02:47:10;101710.03;;;18.87;64.40
6778;BME280;3426;52.244;10.534;2022-07-09T02:49:37;101709.41;;;18.58;64.99
6778;BME280;3426;52.244;10.534;2022-07-09T02:52:04;101710.69;;;18.91;63.87
6778;BME280;3426;52.244;10.534;2022-07-09T02:54:30;101705.00;;;18.95;64.13
6778;BME280;3426;52.244;10.534;2022-07-09T02:56:57;101715.09;;;18.53;65.93
6778;BME280;3426;52.244;10.534;2022-07-09T02:59:24;101717.16;;;18.63;65.66
6778;BME280;3426;52.244;10.534;2022-07-09T03:01:50;101714.97;;;18.93;64.17
6778;BME280;3426;52.244;10.534;2022-07-09T03:04:17;101716.13;;;19.02;63.91
6778;BME280;3426;52.244;10.534;2022-07-09T03:06:43;101722.53;;;18.50;65.80
6778;BME280;3426;52.244;10.534;2022-07-09T03:09:10;101717.47;;;18.58;65.65
6778;BME280;3426;52.244;10.534;2022-07-09T03:11:37;101710.38;;;18.95;64.74
6778;BME280;3426;52.244;10.534;2022-07-09T03:14:03;101719.72;;;18.90;64.74
6778;BME280;3426;52.244;10.534;2022-07-09T03:16:30;101711.78;;;18.63;65.06
6778;BME280;3426;52.244;10.534;2022-07-09T03:18:57;101716.50;;;18.72;64.92
6778;BME280;3426;52.244;10.534;2022-07-09T03:21:23;101717.16;;;18.75;64.09
6778;BME280;3426;52.244;10.534;2022-07-09T03:23:50;101715.41;;;18.87;64.62
6778;BME280;3426;52.244;10.534;2022-07-09T03:26:16;101724.00;;;18.92;64.59
6778;BME280;3426;52.244;10.534;2022-07-09T03:28:43;101720.56;;;18.90;64.57
6778;BME280;3426;52.244;10.534;2022-07-09T03:31:09;101717.31;;;18.98;64.33
6778;BME280;3426;52.244;10.534;2022-07-09T03:33:36;101714.53;;;18.99;64.37
6778;BME280;3426;52.244;10.534;2022-07-09T03:36:03;101703.63;;;18.90;65.17
6778;BME280;3426;52.244;10.534;2022-07-09T03:38:30;101712.03;;;19.09;64.52
6778;BME280;3426;52.244;10.534;2022-07-09T03:40:57;101714.78;;;18.84;65.01
6778;BME280;3426;52.244;10.534;2022-07-09T03:43:23;101710.28;;;18.46;65.92
6778;BME280;3426;52.244;10.534;2022-07-09T03:45:50;101704.19;;;18.69;65.63
6778;BME280;3426;52.244;10.534;2022-07-09T03:48:16;101699.31;;;18.87;65.46
6778;BME280;3426;52.244;10.534;2022-07-09T03:50:43;101702.56;;;18.54;66.49
6778;BME280;3426;52.244;10.534;2022-07-09T03:53:09;101710.06;;;18.36;67.66
6778;BME280;3426;52.244;10.534;2022-07-09T03:55:36;101701.78;;;18.90;65.25
6778;BME280;3426;52.244;10.534;2022-07-09T03:58:03;101706.22;;;18.53;66.55
6778;BME280;3426;52.244;10.534;2022-07-09T04:00:30;101705.81;;;18.21;66.80
6778;BME280;3426;52.244;10.534;2022-07-09T04:02:56;101697.97;;;18.69;66.20
6778;BME280;3426;52.244;10.534;2022-07-09T04:05:23;101688.19;;;18.42;66.65
6778;BME280;3426;52.244;10.534;2022-07-09T04:07:49;101688.19;;;18.55;66.00
6778;BME280;3426;52.244;10.534;2022-07-09T04:10:16;101685.34;;;18.95;64.60
6778;BME280;3426;52.244;10.534;2022-07-09T04:12:42;101684.72;;;19.15;63.91
6778;BME280;3426;52.244;10.534;2022-07-09T04:15:09;101680.56;;;18.74;65.29
6778;BME280;3426;52.244;10.534;2022-07-09T04:17:36;101681.63;;;19.09;64.57
6778;BME280;3426;52.244;10.534;2022-07-09T04:20:03;101682.56;;;19.20;63.72
6778;BME280;3426;52.244;10.534;2022-07-09T04:22:30;101677.03;;;19.35;63.22
6778;BME280;3426;52.244;10.534;2022-07-09T04:24:57;101678.31;;;19.05;64.76
6778;BME280;3426;52.244;10.534;2022-07-09T04:27:24;101687.00;;;18.72;66.22
6778;BME280;3426;52.244;10.534;2022-07-09T04:29:50;101681.97;;;19.04;64.73
6778;BME280;3426;52.244;10.534;2022-07-09T04:32:17;101686.03;;;19.33;63.69
6778;BME280;3426;52.244;10.534;2022-07-09T04:34:43;101690.31;;;18.75;65.23
6778;BME280;3426;52.244;10.534;2022-07-09T04:37:10;101687.22;;;18.56;65.70
6778;BME280;3426;52.244;10.534;2022-07-09T04:39:36;101689.78;;;18.58;65.76
6778;BME280;3426;52.244;10.534;2022-07-09T04:42:03;101692.75;;;18.66;66.28
6778;BME280;3426;52.244;10.534;2022-07-09T04:44:30;101692.28;;;18.73;65.05
6778;BME280;3426;52.244;10.534;2022-07-09T04:46:56;101696.56;;;18.12;67.62
6778;BME280;3426;52.244;10.534;2022-07-09T04:49:23;101693.97;;;19.11;64.52
6778;BME280;3426;52.244;10.534;2022-07-09T04:51:50;101701.63;;;18.68;66.34
6778;BME280;3426;52.244;10.534;2022-07-09T04:54:17;101692.59;;;19.05;64.92
6778;BME280;3426;52.244;10.534;2022-07-09T04:56:44;101690.53;;;19.33;63.91
6778;BME280;3426;52.244;10.534;2022-07-09T04:59:10;101693.16;;;18.98;65.37
6778;BME280;3426;52.244;10.534;2022-07-09T05:01:37;101694.09;;;19.10;65.08
6778;BME280;3426;52.244;10.534;2022-07-09T05:04:03;101689.06;;;19.53;63.56
6778;BME280;3426;52.244;10.534;2022-07-09T05:06:30;101684.16;;;19.47;64.10
6778;BME280;3426;52.244;10.534;2022-07-09T05:08:57;101680.91;;;19.30;64.75
6778;BME280;3426;52.244;10.534;2022-07-09T05:11:23;101669.50;;;19.51;63.55
6778;BME280;3426;52.244;10.534;2022-07-09T05:13:50;101670.22;;;19.42;64.73
6778;BME280;3426;52.244;10.534;2022-07-09T05:16:16;101670.59;;;19.72;63.00
6778;BME280;3426;52.244;10.534;2022-07-09T05:18:43;101670.84;;;19.69;62.87
6778;BME280;3426;52.244;10.534;2022-07-09T05:21:10;101669.91;;;19.93;62.27
6778;BME280;3426;52.244;10.534;2022-07-09T05:23:36;101671.53;;;19.12;64.72
6778;BME280;3426;52.244;10.534;2022-07-09T05:26:03;101674.72;;;19.17;65.47
6778;BME280;3426;52.244;10.534;2022-07-09T05:28:30;101677.81;;;19.48;64.04
6778;BME280;3426;52.244;10.534;2022-07-09T05:30:57;101670.44;;;19.15;65.40
6778;BME280;3426;52.244;10.534;2022-07-09T05:33:43;101666.22;;;19.47;64.50
6778;BME280;3426;52.244;10.534;2022-07-09T05:36:15;101652.13;;;19.68;63.95
6778;BME280;3426;52.244;10.534;2022-07-09T05:38:44;101662.03;;;19.67;64.02
6778;BME280;3426;52.244;10.534;2022-07-09T05:41:10;101657.66;;;19.77;63.74
6778;BME280;3426;52.244;10.534;2022-07-09T05:43:37;101653.53;;;19.96;63.60
6778;BME280;3426;52.244;10.534;2022-07-09T05:46:03;101656.16;;;19.73;64.17
6778;BME280;3426;52.244;10.534;2022-07-09T05:48:30;101665.66;;;18.94;66.81
6778;BME280;3426;52.244;10.534;2022-07-09T05:50:57;101663.63;;;19.70;64.37
6778;BME280;3426;52.244;10.534;2022-07-09T05:53:23;101662.34;;;19.87;64.31
6778;BME280;3426;52.244;10.534;2022-07-09T05:55:50;101669.31;;;19.30;66.39
6778;BME280;3426;52.244;10.534;2022-07-09T05:58:16;101669.34;;;20.11;63.29
6778;BME280;3426;52.244;10.534;2022-07-09T06:00:43;101670.22;;;19.18;66.29
6778;BME280;3426;52.244;10.534;2022-07-09T06:03:09;101681.41;;;18.62;67.93
6778;BME280;3426;52.244;10.534;2022-07-09T06:05:36;101685.25;;;19.20;66.47
6778;BME280;3426;52.244;10.534;2022-07-09T06:08:03;101687.78;;;18.98;68.06
6778;BME280;3426;52.244;10.534;2022-07-09T06:10:29;101679.22;;;20.00;63.98
6778;BME280;3426;52.244;10.534;2022-07-09T06:12:56;101668.22;;;19.92;64.07
6778;BME280;3426;52.244;10.534;2022-07-09T06:15:22;101660.06;;;20.27;63.47
6778;BME280;3426;52.244;10.534;2022-07-09T06:17:49;101656.47;;;19.33;65.74
6778;BME280;3426;52.244;10.534;2022-07-09T06:20:17;101667.13;;;19.35;66.48
6778;BME280;3426;52.244;10.534;2022-07-09T06:22:43;101665.72;;;19.77;65.48
6778;BME280;3426;52.244;10.534;2022-07-09T06:25:10;101661.28;;;20.34;64.45
6778;BME280;3426;52.244;10.534;2022-07-09T06:27:36;101665.91;;;19.98;65.55
6778;BME280;3426;52.244;10.534;2022-07-09T06:30:04;101665.91;;;19.15;67.09
6778;BME280;3426;52.244;10.534;2022-07-09T06:32:30;101656.66;;;19.43;66.30
6778;BME280;3426;52.244;10.534;2022-07-09T06:34:57;101656.38;;;20.05;64.86
6778;BME280;3426;52.244;10.534;2022-07-09T06:37:23;101652.00;;;20.38;64.37
6778;BME280;3426;52.244;10.534;2022-07-09T06:39:50;101656.16;;;20.08;64.16
6778;BME280;3426;52.244;10.534;2022-07-09T06:42:17;101654.34;;;20.76;62.92
6778;BME280;3426;52.244;10.534;2022-07-09T06:44:44;101662.88;;;20.25;63.23
6778;BME280;3426;52.244;10.534;2022-07-09T06:47:11;101659.25;;;20.49;63.00
6778;BME280;3426;52.244;10.534;2022-07-09T06:49:38;101655.16;;;20.88;62.55
6778;BME280;3426;52.244;10.534;2022-07-09T06:52:05;101655.97;;;21.11;61.61
6778;BME280;3426;52.244;10.534;2022-07-09T06:54:31;101657.47;;;20.81;62.63
6778;BME280;3426;52.244;10.534;2022-07-09T06:56:58;101644.31;;;20.67;61.79
6778;BME280;3426;52.244;10.534;2022-07-09T06:59:31;101650.63;;;20.88;61.27
6778;BME280;3426;52.244;10.534;2022-07-09T07:01:57;101652.72;;;21.39;59.70
6778;BME280;3426;52.244;10.534;2022-07-09T07:04:24;101658.25;;;20.72;61.86
6778;BME280;3426;52.244;10.534;2022-07-09T07:06:51;101654.81;;;20.59;61.97
6778;BME280;3426;52.244;10.534;2022-07-09T07:09:19;101650.66;;;20.44;62.29
6778;BME280;3426;52.244;10.534;2022-07-09T07:11:50;101644.91;;;20.82;60.73
6778;BME280;3426;52.244;10.534;2022-07-09T07:14:17;101638.88;;;21.33;59.40
6778;BME280;3426;52.244;10.534;2022-07-09T07:16:44;101644.03;;;21.78;58.73
6778;BME280;3426;52.244;10.534;2022-07-09T07:19:11;101645.50;;;20.41;61.00
6778;BME280;3426;52.244;10.534;2022-07-09T07:21:38;101640.28;;;20.61;61.13
6778;BME280;3426;52.244;10.534;2022-07-09T07:24:06;101644.75;;;21.27;59.82
6778;BME280;3426;52.244;10.534;2022-07-09T07:26:33;101642.78;;;21.40;59.25
6778;BME280;3426;52.244;10.534;2022-07-09T07:29:00;101629.03;;;22.06;57.76
6778;BME280;3426;52.244;10.534;2022-07-09T07:31:27;101632.53;;;21.55;59.39
6778;BME280;3426;52.244;10.534;2022-07-09T07:33:54;101631.78;;;21.94;58.50
6778;BME280;3426;52.244;10.534;2022-07-09T07:36:20;101634.94;;;22.00;58.25
6778;BME280;3426;52.244;10.534;2022-07-09T07:38:47;101629.53;;;21.69;59.09
6778;BME280;3426;52.244;10.534;2022-07-09T07:41:14;101637.06;;;22.47;56.97
6778;BME280;3426;52.244;10.534;2022-07-09T07:43:42;101628.00;;;21.97;58.48
6778;BME280;3426;52.244;10.534;2022-07-09T07:46:09;101619.06;;;21.76;58.27
6778;BME280;3426;52.244;10.534;2022-07-09T07:48:35;101615.94;;;22.22;57.18
6778;BME280;3426;52.244;10.534;2022-07-09T07:51:03;101614.22;;;22.21;56.73
6778;BME280;3426;52.244;10.534;2022-07-09T07:53:31;101620.88;;;21.54;58.34
6778;BME280;3426;52.244;10.534;2022-07-09T07:56:04;101618.09;;;21.56;57.86
6778;BME280;3426;52.244;10.534;2022-07-09T07:58:32;101617.69;;;21.81;56.70
6778;BME280;3426;52.244;10.534;2022-07-09T08:00:59;101612.28;;;21.39;59.04
6778;BME280;3426;52.244;10.534;2022-07-09T08:03:26;101606.22;;;22.10;57.50
6778;BME280;3426;52.244;10.534;2022-07-09T08:05:58;101603.13;;;23.05;56.02
6778;BME280;3426;52.244;10.534;2022-07-09T08:08:24;101609.88;;;22.09;57.93
6778;BME280;3426;52.244;10.534;2022-07-09T08:10:51;101612.22;;;23.04;54.74
6778;BME280;3426;52.244;10.534;2022-07-09T08:13:17;101618.81;;;21.79;56.23
6778;BME280;3426;52.244;10.534;2022-07-09T08:15:44;101606.97;;;22.21;55.53
6778;BME280;3426;52.244;10.534;2022-07-09T08:18:11;101601.28;;;22.15;56.22
6778;BME280;3426;52.244;10.534;2022-07-09T08:20:40;101602.97;;;21.95;57.68
6778;BME280;3426;52.244;10.534;2022-07-09T08:23:07;101599.53;;;22.44;55.16
6778;BME280;3426;52.244;10.534;2022-07-09T08:25:34;101597.38;;;22.08;55.70
6778;BME280;3426;52.244;10.534;2022-07-09T08:28:01;101598.31;;;22.58;55.08
6778;BME280;3426;52.244;10.534;2022-07-09T08:30:27;101600.22;;;22.87;54.81
6778;BME280;3426;52.244;10.534;2022-07-09T08:32:54;101597.69;;;22.35;55.09
6778;BME280;3426;52.244;10.534;2022-07-09T08:35:20;101604.16;;;22.73;54.89
6778;BME280;3426;52.244;10.534;2022-07-09T08:37:47;101596.03;;;22.13;56.60
6778;BME280;3426;52.244;10.534;2022-07-09T08:40:13;101602.56;;;21.69;56.72
6778;BME280;3426;52.244;10.534;2022-07-09T08:42:40;101597.03;;;22.22;55.91
6778;BME280;3426;52.244;10.534;2022-07-09T08:45:10;101587.28;;;22.31;55.11
6778;BME280;3426;52.244;10.534;2022-07-09T08:47:40;101588.94;;;21.91;56.22
6778;BME280;3426;52.244;10.534;2022-07-09T08:50:08;101579.75;;;22.34;55.33
6778;BME280;3426;52.244;10.534;2022-07-09T08:52:35;101573.31;;;22.16;55.80
6778;BME280;3426;52.244;10.534;2022-07-09T08:55:03;101576.22;;;21.82;56.46
6778;BME280;3426;52.244;10.534;2022-07-09T08:57:30;101578.00;;;22.64;55.22
6778;BME280;3426;52.244;10.534;2022-07-09T08:59:57;101567.50;;;22.00;56.05
6778;BME280;3426;52.244;10.534;2022-07-09T09:02:24;101568.63;;;22.68;55.21
6778;BME280;3426;52.244;10.534;2022-07-09T09:04:50;101566.09;;;22.76;54.23
6778;BME280;3426;52.244;10.534;2022-07-09T09:07:20;101569.00;;;23.04;53.80
6778;BME280;3426;52.244;10.534;2022-07-09T09:09:48;101561.84;;;23.12;53.63
6778;BME280;3426;52.244;10.534;2022-07-09T09:12:15;101557.97;;;22.66;54.88
6778;BME280;3426;52.244;10.534;2022-07-09T09:14:48;101559.94;;;22.74;53.90
6778;BME280;3426;52.244;10.534;2022-07-09T09:17:16;101566.59;;;22.51;54.61
6778;BME280;3426;52.244;10.534;2022-07-09T09:19:42;101569.06;;;21.92;55.82
6778;BME280;3426;52.244;10.534;2022-07-09T09:22:09;101582.66;;;22.12;54.98
6778;BME280;3426;52.244;10.534;2022-07-09T09:24:35;101584.63;;;21.89;56.32
6778;BME280;3426;52.244;10.534;2022-07-09T09:27:02;101565.59;;;22.52;54.66
6778;BME280;3426;52.244;10.534;2022-07-09T09:29:29;101568.00;;;22.35;55.29
6778;BME280;3426;52.244;10.534;2022-07-09T09:31:55;101571.81;;;23.02;53.95
6778;BME280;3426;52.244;10.534;2022-07-09T09:34:23;101567.81;;;23.45;53.72
6778;BME280;3426;52.244;10.534;2022-07-09T09:36:51;101563.84;;;22.31;55.85
6778;BME280;3426;52.244;10.534;2022-07-09T09:39:23;101547.19;;;23.24;53.63
6778;BME280;3426;52.244;10.534;2022-07-09T09:44:32;101548.94;;;23.16;53.12
6778;BME280;3426;52.244;10.534;2022-07-09T09:47:05;101559.00;;;23.14;53.79
6778;BME280;3426;52.244;10.534;2022-07-09T09:49:34;101539.72;;;23.75;51.53
6778;BME280;3426;52.244;10.534;2022-07-09T09:52:05;101540.47;;;22.61;54.23
6778;BME280;3426;52.244;10.534;2022-07-09T09:54:33;101533.63;;;23.53;52.34
6778;BME280;3426;52.244;10.534;2022-07-09T09:57:05;101542.47;;;23.46;51.56
6778;BME280;3426;52.244;10.534;2022-07-09T10:02:11;101529.88;;;23.84;50.77
6778;BME280;3426;52.244;10.534;2022-07-09T10:04:40;101523.16;;;23.88;51.54
6778;BME280;3426;52.244;10.534;2022-07-09T10:07:08;101528.78;;;23.57;51.14
6778;BME280;3426;52.244;10.534;2022-07-09T10:09:35;101520.16;;;23.34;51.70
6778;BME280;3426;52.244;10.534;2022-07-09T10:12:01;101526.75;;;24.43;49.75
6778;BME280;3426;52.244;10.534;2022-07-09T10:14:32;101521.06;;;25.00;49.28
6778;BME280;3426;52.244;10.534;2022-07-09T10:19:36;101521.63;;;24.68;48.81
6778;BME280;3426;52.244;10.534;2022-07-09T10:22:03;101520.22;;;24.64;48.07
6778;BME280;3426;52.244;10.534;2022-07-09T10:24:32;101528.91;;;23.75;48.78
6778;BME280;3426;52.244;10.534;2022-07-09T10:27:05;101525.00;;;23.87;48.27
6778;BME280;3426;52.244;10.534;2022-07-09T10:29:34;101532.19;;;23.69;48.78
6778;BME280;3426;52.244;10.534;2022-07-09T10:32:01;101527.66;;;24.34;48.04
6778;BME280;3426;52.244;10.534;2022-07-09T10:34:36;101528.44;;;24.44;47.39
6778;BME280;3426;52.244;10.534;2022-07-09T10:37:04;101521.13;;;24.54;47.68
6778;BME280;3426;52.244;10.534;2022-07-09T10:39:32;101514.84;;;24.36;47.34
6778;BME280;3426;52.244;10.534;2022-07-09T10:42:03;101518.31;;;23.91;49.05
6778;BME280;3426;52.244;10.534;2022-07-09T10:44:37;101524.50;;;23.74;48.01
6778;BME280;3426;52.244;10.534;2022-07-09T10:47:04;101517.22;;;23.84;48.08
6778;BME280;3426;52.244;10.534;2022-07-09T10:49:35;101519.41;;;23.61;49.04
6778;BME280;3426;52.244;10.534;2022-07-09T10:52:04;101520.19;;;24.46;48.21
6778;BME280;3426;52.244;10.534;2022-07-09T10:54:33;101509.19;;;23.92;47.85
6778;BME280;3426;52.244;10.534;2022-07-09T10:57:00;101510.47;;;24.71;45.58
6778;BME280;3426;52.244;10.534;2022-07-09T10:59:26;101498.94;;;24.69;46.63
6778;BME280;3426;52.244;10.534;2022-07-09T11:01:53;101500.22;;;24.82;45.93
6778;BME280;3426;52.244;10.534;2022-07-09T11:04:29;101500.28;;;24.37;45.88
6778;BME280;3426;52.244;10.534;2022-07-09T11:06:58;101495.38;;;24.86;44.93
6778;BME280;3426;52.244;10.534;2022-07-09T11:09:26;101491.16;;;24.38;45.35
6778;BME280;3426;52.244;10.534;2022-07-09T11:11:56;101476.63;;;25.10;44.10
6778;BME280;3426;52.244;10.534;2022-07-09T11:14:23;101478.00;;;24.43;45.63
6778;BME280;3426;52.244;10.534;2022-07-09T11:16:54;101477.41;;;24.49;46.08
6778;BME280;3426;52.244;10.534;2022-07-09T11:19:21;101468.25;;;24.50;45.79
6778;BME280;3426;52.244;10.534;2022-07-09T11:21:48;101473.44;;;24.97;44.14
6778;BME280;3426;52.244;10.534;2022-07-09T11:24:19;101474.38;;;25.06;45.57
6778;BME280;3426;52.244;10.534;2022-07-09T11:26:46;101467.94;;;24.89;44.08
6778;BME280;3426;52.244;10.534;2022-07-09T11:29:18;101468.59;;;24.47;45.50
6778;BME280;3426;52.244;10.534;2022-07-09T11:31:52;101465.84;;;25.01;44.18
6778;BME280;3426;52.244;10.534;2022-07-09T11:34:19;101471.72;;;23.97;45.08
6778;BME280;3426;52.244;10.534;2022-07-09T11:36:50;101458.38;;;24.41;44.13
6778;BME280;3426;52.244;10.534;2022-07-09T11:39:32;101465.59;;;24.23;44.00
6778;BME280;3426;52.244;10.534;2022-07-09T11:42:00;101458.56;;;25.45;42.62
6778;BME280;3426;52.244;10.534;2022-07-09T11:44:31;101453.72;;;24.87;43.40
6778;BME280;3426;52.244;10.534;2022-07-09T11:47:08;101456.34;;;25.15;43.21
6778;BME280;3426;52.244;10.534;2022-07-09T11:49:43;101453.94;;;24.76;43.16
6778;BME280;3426;52.244;10.534;2022-07-09T11:55:07;101467.31;;;24.95;42.83
6778;BME280;3426;52.244;10.534;2022-07-09T11:57:35;101461.03;;;25.13;42.49
6778;BME280;3426;52.244;10.534;2022-07-09T12:00:05;101459.03;;;25.15;42.18
6778;BME280;3426;52.244;10.534;2022-07-09T12:05:03;101448.06;;;25.24;42.46
6778;BME280;3426;52.244;10.534;2022-07-09T12:07:30;101446.91;;;24.83;44.05
6778;BME280;3426;52.244;10.534;2022-07-09T12:10:05;101448.25;;;24.79;43.29
6778;BME280;3426;52.244;10.534;2022-07-09T12:12:34;101433.91;;;24.69;42.84
6778;BME280;3426;52.244;10.534;2022-07-09T12:15:02;101423.94;;;25.39;42.86
6778;BME280;3426;52.244;10.534;2022-07-09T12:17:34;101429.19;;;24.71;43.32
6778;BME280;3426;52.244;10.534;2022-07-09T12:20:02;101420.38;;;25.13;42.36
6778;BME280;3426;52.244;10.534;2022-07-09T12:22:33;101413.84;;;25.57;44.15
6778;BME280;3426;52.244;10.534;2022-07-09T12:24:59;101385.31;;;25.79;41.31
6778;BME280;3426;52.244;10.534;2022-07-09T12:27:26;101392.31;;;25.90;40.87
6778;BME280;3426;52.244;10.534;2022-07-09T12:29:52;101394.03;;;25.23;39.71
6778;BME280;3426;52.244;10.534;2022-07-09T12:32:19;101394.84;;;25.83;39.67
6778;BME280;3426;52.244;10.534;2022-07-09T12:34:45;101384.44;;;26.54;38.82
6778;BME280;3426;52.244;10.534;2022-07-09T12:37:12;101389.13;;;26.03;39.08
6778;BME280;3426;52.244;10.534;2022-07-09T12:39:38;101391.44;;;25.13;39.19
6778;BME280;3426;52.244;10.534;2022-07-09T12:42:05;101373.34;;;25.22;38.77
6778;BME280;3426;52.244;10.534;2022-07-09T12:44:31;101373.66;;;25.95;38.99
6778;BME280;3426;52.244;10.534;2022-07-09T12:46:58;101364.81;;;25.77;37.89
6778;BME280;3426;52.244;10.534;2022-07-09T12:49:25;101359.13;;;26.37;37.33
6778;BME280;3426;52.244;10.534;2022-07-09T12:51:51;101359.56;;;25.83;38.11
6778;BME280;3426;52.244;10.534;2022-07-09T12:54:18;101354.16;;;25.15;38.37
6778;BME280;3426;52.244;10.534;2022-07-09T12:56:44;101354.59;;;25.71;38.58
6778;BME280;3426;52.244;10.534;2022-07-09T12:59:32;101352.00;;;25.19;38.61
6778;BME280;3426;52.244;10.534;2022-07-09T13:01:59;101352.81;;;25.53;38.07
6778;BME280;3426;52.244;10.534;2022-07-09T13:04:25;101339.78;;;26.24;38.50
6778;BME280;3426;52.244;10.534;2022-07-09T13:06:52;101345.91;;;26.34;37.45
6778;BME280;3426;52.244;10.534;2022-07-09T13:09:20;101338.38;;;25.87;37.98
6778;BME280;3426;52.244;10.534;2022-07-09T13:11:46;101337.19;;;25.98;38.20
6778;BME280;3426;52.244;10.534;2022-07-09T13:14:15;101334.56;;;25.72;39.10
6778;BME280;3426;52.244;10.534;2022-07-09T13:16:42;101341.81;;;25.55;39.07